Time;durP1;ratioP1;P1;durP2;ratioP2;P2;SDS_P1;SDS_P2;PMS_P1;PMS_P2;Temp;Humidity;BMP_temperature;BMP_pressure;BME280_temperature;BME280_humidity;BME280_pressure;Samples;Min_cycle;Max_cycle;Signal;HPM_P1;HPM_P2
2023/03/14 00:02:37;;;;;;;0.30;0.30;;;;;;;24.64;36.45;98310.67;1831098;77;28224;-49
2023/03/14 00:05:26;;;;;;;0.42;0.42;;;;;;;24.65;36.46;98319.73;1829032;77;28421;-53
2023/03/14 00:08:14;;;;;;;0.40;0.40;;;;;;;24.64;36.52;98339.50;1834153;77;28218;-53
2023/03/14 00:11:08;;;;;;;0.50;0.50;;;;;;;24.63;36.45;98336.50;1823027;77;28217;-52
2023/03/14 00:13:57;;;;;;;1.00;0.50;;;;;;;24.64;36.48;98316.73;1792899;79;28378;-53
2023/03/14 00:16:47;;;;;;;0.40;0.30;;;;;;;24.53;36.52;98285.70;1845333;77;28202;-52
2023/03/14 00:19:35;;;;;;;0.50;0.50;;;;;;;24.63;36.50;98306.30;1803185;77;28276;-49
2023/03/14 00:22:23;;;;;;;0.30;0.30;;;;;;;24.60;36.48;98295.03;1789252;79;28374;-52
2023/03/14 00:25:13;;;;;;;0.40;0.40;;;;;;;24.63;36.52;98315.08;1785637;79;28412;-50
2023/03/14 00:28:01;;;;;;;0.42;0.42;;;;;;;24.61;36.54;98337.33;1826555;77;28310;-53
2023/03/14 00:30:49;;;;;;;0.20;0.20;;;;;;;24.62;36.56;98330.72;1815295;78;28282;-52
2023/03/14 00:33:38;;;;;;;0.35;0.35;;;;;;;24.61;36.51;98332.37;1824625;77;28367;-51
2023/03/14 00:36:27;;;;;;;0.93;0.45;;;;;;;24.59;36.51;98335.41;1821359;77;28295;-51
2023/03/14 00:39:16;;;;;;;0.40;0.40;;;;;;;24.60;36.56;98332.92;1797103;77;28287;-52
2023/03/14 00:42:04;;;;;;;0.40;0.40;;;;;;;24.62;36.50;98345.82;1804404;77;28383;-52
2023/03/14 00:44:53;;;;;;;0.40;0.40;;;;;;;24.62;36.48;98349.14;1804509;78;28411;-51
2023/03/14 00:47:45;;;;;;;0.20;0.20;;;;;;;24.60;36.55;98341.70;1801440;79;28322;-51
2023/03/14 00:50:31;;;;;;;0.47;0.47;;;;;;;24.61;36.49;98344.73;1800138;79;28387;-53
2023/03/14 00:53:20;;;;;;;0.30;0.30;;;;;;;24.60;36.51;98352.14;1799296;79;28335;-53
2023/03/14 00:56:11;;;;;;;0.30;0.30;;;;;;;24.60;36.54;98357.63;1829970;77;28316;-51
2023/03/14 00:59:00;;;;;;;0.40;0.40;;;;;;;24.59;36.52;98360.13;1841598;75;27800;-52
2023/03/14 01:01:48;;;;;;;0.20;0.20;;;;;;;24.60;36.54;98345.28;1850644;77;27888;-51
2023/03/14 01:04:37;;;;;;;0.30;0.30;;;;;;;24.57;36.53;98358.20;1849589;77;27742;-49
2023/03/14 01:07:26;;;;;;;0.35;0.30;;;;;;;24.62;36.48;98387.59;1844004;77;27875;-54
2023/03/14 01:10:15;;;;;;;0.40;0.40;;;;;;;24.59;36.54;98408.17;1836629;77;27807;-50
2023/03/14 01:13:03;;;;;;;0.37;0.37;;;;;;;24.59;36.52;98405.43;1838527;77;28260;-53
2023/03/14 01:15:51;;;;;;;0.42;0.25;;;;;;;24.58;36.52;98393.33;1825251;77;28209;-53
2023/03/14 01:18:41;;;;;;;0.37;0.37;;;;;;;24.59;36.53;98363.41;1778711;79;28328;-50
2023/03/14 01:21:33;;;;;;;0.33;0.33;;;;;;;24.58;36.59;98340.62;1837972;77;27723;-50
2023/03/14 01:24:22;;;;;;;0.20;0.20;;;;;;;24.58;36.51;98313.70;1851955;77;28323;-51
2023/03/14 01:27:11;;;;;;;0.30;0.30;;;;;;;24.58;36.53;98306.30;1855097;77;27758;-50
2023/03/14 01:29:59;;;;;;;0.42;0.42;;;;;;;24.60;36.48;98318.36;1855837;76;27734;-53
2023/03/14 01:32:48;;;;;;;1.45;0.37;;;;;;;24.60;36.54;98337.59;1842292;77;28200;-50
2023/03/14 01:35:37;;;;;;;0.20;0.20;;;;;;;24.59;36.52;98356.00;1837429;77;27822;-54
2023/03/14 01:38:26;;;;;;;0.47;0.40;;;;;;;24.59;36.49;98362.05;1855750;77;27803;-51
2023/03/14 01:41:22;;;;;;;0.28;0.28;;;;;;;24.57;36.49;98354.09;1846695;77;28193;-53
2023/03/14 01:44:12;;;;;;;0.30;0.30;;;;;;;24.57;36.49;98358.75;1823969;77;27734;-51
2023/03/14 01:47:01;;;;;;;0.30;0.30;;;;;;;24.56;36.55;98352.43;1851697;77;27774;-52
2023/03/14 01:49:52;;;;;;;0.30;0.30;;;;;;;24.56;36.52;98362.03;1855217;77;27726;-54
2023/03/14 01:52:44;;;;;;;0.30;0.30;;;;;;;24.59;36.52;98383.47;1839385;75;28111;-55
2023/03/14 01:55:33;;;;;;;0.30;0.30;;;;;;;24.56;36.51;98394.98;1834391;77;27703;-53
2023/03/14 01:58:21;;;;;;;0.40;0.40;;;;;;;24.57;36.53;98391.16;1844835;76;27676;-53
2023/03/14 02:01:12;;;;;;;0.70;0.30;;;;;;;24.56;36.51;98394.98;1839695;77;27838;-53
2023/03/14 02:04:02;;;;;;;0.30;0.30;;;;;;;24.56;36.58;98394.16;1825743;77;28286;-53
2023/03/14 02:06:57;;;;;;;0.20;0.20;;;;;;;24.57;36.60;98397.19;1852760;77;28175;-49
2023/03/14 02:09:48;;;;;;;0.23;0.23;;;;;;;24.56;36.61;98391.41;1844823;76;28256;-53
2023/03/14 02:12:39;;;;;;;0.88;0.33;;;;;;;24.56;36.56;98383.17;1849899;77;27768;-56
2023/03/14 02:15:32;;;;;;;0.20;0.20;;;;;;;24.52;36.57;98355.45;1856470;75;27744;-53
2023/03/14 02:18:23;;;;;;;0.30;0.30;;;;;;;24.55;36.54;98332.13;1842708;77;27787;-54
2023/03/14 02:21:31;;;;;;;0.40;0.40;;;;;;;24.56;36.58;98322.77;1856025;77;32185;-53
2023/03/14 02:24:41;;;;;;;1.20;0.30;;;;;;;24.57;36.55;98325.27;1850319;77;28183;-50
2023/03/14 02:27:32;;;;;;;0.30;0.30;;;;;;;24.55;36.55;98326.63;1848597;77;28212;-51
2023/03/14 02:30:23;;;;;;;1.60;0.40;;;;;;;24.47;36.68;98320.30;1851336;77;28130;-50
2023/03/14 02:33:16;;;;;;;0.35;0.35;;;;;;;24.51;36.62;98293.40;1828293;77;27828;-54
2023/03/14 02:36:08;;;;;;;0.33;0.33;;;;;;;24.52;36.61;98284.08;1854849;77;27827;-52
2023/03/14 02:39:09;;;;;;;0.20;0.20;;;;;;;24.54;36.65;98287.36;1852001;76;27702;-53
2023/03/14 02:41:59;;;;;;;0.20;0.20;;;;;;;24.53;36.62;98287.63;1843383;77;27745;-52
2023/03/14 02:44:54;;;;;;;0.23;0.23;;;;;;;24.53;36.62;98283.50;1848039;77;27744;-54
2023/03/14 02:47:55;;;;;;;0.30;0.30;;;;;;;24.53;36.60;98278.84;1844759;77;28229;-53
2023/03/14 02:50:46;;;;;;;0.37;0.37;;;;;;;24.55;36.55;98270.35;1835746;75;28113;-52
2023/03/14 02:53:37;;;;;;;0.30;0.30;;;;;;;24.55;36.60;98266.23;1847019;77;28306;-52
2023/03/14 02:56:27;;;;;;;0.35;0.13;;;;;;;24.55;36.61;98251.13;1828117;75;27841;-50
2023/03/14 02:59:17;;;;;;;0.10;0.10;;;;;;;24.55;36.58;98257.42;1843570;75;27828;-50
2023/03/14 03:02:06;;;;;;;0.20;0.20;;;;;;;24.53;36.54;98247.27;1846207;77;27743;-54
2023/03/14 03:04:55;;;;;;;0.33;0.33;;;;;;;24.53;36.62;98252.77;1855790;75;27774;-54
2023/03/14 03:07:43;;;;;;;0.20;0.20;;;;;;;24.54;36.57;98250.30;1854693;75;27755;-54
2023/03/14 03:10:33;;;;;;;0.25;0.25;;;;;;;24.54;36.62;98253.05;1848758;77;28239;-55
2023/03/14 03:13:22;;;;;;;0.20;0.20;;;;;;;24.52;36.65;98244.81;1822163;77;27795;-51
2023/03/14 03:16:13;;;;;;;0.30;0.30;;;;;;;24.56;36.67;98248.64;1859335;76;27872;-55
2023/03/14 03:19:01;;;;;;;0.20;0.20;;;;;;;24.53;36.61;98233.55;1856295;75;27837;-54
2023/03/14 03:21:49;;;;;;;0.13;0.13;;;;;;;24.49;36.61;98225.59;1850707;77;27747;-56
2023/03/14 03:24:38;;;;;;;0.20;0.20;;;;;;;24.55;36.62;98228.59;1852442;77;28169;-52
2023/03/14 03:27:26;;;;;;;0.20;0.20;;;;;;;24.55;36.60;98231.91;1837304;77;28290;-54
2023/03/14 03:30:16;;;;;;;0.40;0.40;;;;;;;24.55;36.61;98231.91;1842044;77;28241;-53
2023/03/14 03:33:04;;;;;;;0.20;0.20;;;;;;;24.54;36.63;98226.97;1835093;77;28129;-54
2023/03/14 03:35:52;;;;;;;0.20;0.20;;;;;;;24.54;36.60;98225.59;1854978;77;27763;-54
2023/03/14 03:38:43;;;;;;;0.15;0.15;;;;;;;24.54;36.60;98221.48;1850023;77;27881;-53
2023/03/14 03:41:32;;;;;;;0.20;0.20;;;;;;;24.52;36.68;98218.73;1848838;77;28245;-53
2023/03/14 03:44:21;;;;;;;0.20;0.20;;;;;;;24.52;36.66;98218.19;1853241;75;28194;-52
2023/03/14 03:47:09;;;;;;;0.20;0.20;;;;;;;24.52;36.61;98215.45;1847039;76;28154;-51
2023/03/14 03:49:58;;;;;;;0.30;0.30;;;;;;;24.50;36.60;98212.16;1859157;76;28275;-52
2023/03/14 03:52:47;;;;;;;0.42;0.13;;;;;;;24.51;36.67;98206.92;1862357;76;28337;-53
2023/03/14 03:55:35;;;;;;;0.10;0.10;;;;;;;24.50;36.65;98209.95;1854956;76;28180;-53
2023/03/14 03:58:24;;;;;;;0.17;0.17;;;;;;;24.52;36.69;98205.83;1847449;76;28188;-52
2023/03/14 04:01:13;;;;;;;0.10;0.10;;;;;;;24.52;36.64;98200.34;1867938;76;27808;-50
2023/03/14 04:04:01;;;;;;;0.20;0.20;;;;;;;24.50;36.64;98198.43;1865454;76;28218;-50
2023/03/14 04:06:50;;;;;;;0.30;0.30;;;;;;;24.51;36.66;98197.86;1868582;76;27711;-52
2023/03/14 04:09:39;;;;;;;0.30;0.30;;;;;;;24.52;36.70;98196.77;1862076;76;27731;-53
2023/03/14 04:12:41;;;;;;;0.20;0.20;;;;;;;24.52;36.69;98186.62;1868272;76;27749;-52
2023/03/14 04:15:31;;;;;;;0.20;0.20;;;;;;;24.51;36.66;98179.47;1859449;76;28216;-54
2023/03/14 04:18:24;;;;;;;0.30;0.30;;;;;;;24.50;36.72;98184.70;1855311;76;28588;-52
2023/03/14 04:21:13;;;;;;;0.28;0.28;;;;;;;24.52;36.69;98194.85;1866363;76;28231;-51
2023/03/14 04:24:04;;;;;;;0.20;0.20;;;;;;;24.51;36.70;98191.83;1848948;76;27834;-51
2023/03/14 04:26:54;;;;;;;0.15;0.15;;;;;;;24.51;36.70;98170.41;1861967;76;27722;-52
2023/03/14 04:29:43;;;;;;;0.25;0.25;;;;;;;24.52;36.68;98167.40;1862267;76;27734;-49
2023/03/14 04:32:33;;;;;;;0.10;0.10;;;;;;;24.54;36.67;98161.08;1865791;76;28213;-51
2023/03/14 04:35:22;;;;;;;0.20;0.20;;;;;;;24.52;36.67;98157.80;1860300;76;27852;-53
2023/03/14 04:38:13;;;;;;;0.20;0.20;;;;;;;24.49;36.65;98144.61;1855118;76;27758;-53
2023/03/14 04:41:03;;;;;;;0.28;0.28;;;;;;;24.52;36.67;98140.48;1848015;76;28343;-48
2023/03/14 04:43:53;;;;;;;0.10;0.10;;;;;;;24.49;36.69;98145.98;1867794;75;27836;-52
2023/03/14 04:46:42;;;;;;;0.20;0.20;;;;;;;24.50;36.68;98138.58;1859589;76;27786;-52
2023/03/14 04:49:33;;;;;;;0.20;0.20;;;;;;;24.49;36.70;98135.00;1869810;76;28245;-54
2023/03/14 04:52:22;;;;;;;0.70;0.30;;;;;;;24.50;36.66;98127.05;1867634;76;27811;-52
2023/03/14 04:55:10;;;;;;;0.20;0.20;;;;;;;24.50;36.69;98124.31;1853029;76;32708;-51
2023/03/14 04:58:00;;;;;;;0.20;0.20;;;;;;;24.47;36.70;98120.74;1877480;76;27858;-51
2023/03/14 05:00:49;;;;;;;0.30;0.30;;;;;;;24.48;36.71;98108.64;1859014;74;27785;-54
2023/03/14 05:03:41;;;;;;;0.30;0.30;;;;;;;24.49;36.73;98109.47;1838049;76;28255;-52
2023/03/14 05:06:47;;;;;;;0.30;0.30;;;;;;;24.49;36.75;98115.79;1876122;76;28168;-52
2023/03/14 05:09:53;;;;;;;0.20;0.20;;;;;;;24.46;36.80;98110.02;1873735;76;27801;-51
2023/03/14 05:12:48;;;;;;;0.10;0.10;;;;;;;24.44;36.72;98103.99;1857329;76;27809;-52
2023/03/14 05:15:56;;;;;;;0.30;0.10;;;;;;;24.46;36.74;98104.53;1870125;76;27746;-50
2023/03/14 05:18:52;;;;;;;0.10;0.10;;;;;;;24.43;36.80;98103.73;1823523;76;27801;-53
2023/03/14 05:21:59;;;;;;;0.10;0.10;;;;;;;24.42;36.76;98098.80;1869197;76;28188;-52
2023/03/14 05:24:49;;;;;;;0.30;0.30;;;;;;;24.41;36.85;98101.83;1872142;76;27739;-52
2023/03/14 05:27:41;;;;;;;0.10;0.10;;;;;;;24.43;36.80;98094.13;1857477;76;27789;-51
2023/03/14 05:30:48;;;;;;;0.10;0.10;;;;;;;24.43;36.80;98092.77;1872549;76;27749;-53
2023/03/14 05:33:41;;;;;;;0.10;0.10;;;;;;;24.42;36.77;98098.80;1866661;76;28255;-53
2023/03/14 05:36:31;;;;;;;0.20;0.20;;;;;;;24.43;36.82;98107.86;1865608;76;27880;-50
2023/03/14 05:39:24;;;;;;;0.25;0.25;;;;;;;24.45;36.75;98106.48;1876961;76;28252;-53
2023/03/14 05:42:26;;;;;;;0.10;0.10;;;;;;;24.45;36.74;98098.79;1829125;77;28190;-48
2023/03/14 05:45:35;;;;;;;0.10;0.10;;;;;;;24.43;36.74;98097.70;1800918;77;28402;-50
2023/03/14 05:48:42;;;;;;;0.10;0.10;;;;;;;24.41;36.83;98105.95;1841389;77;28246;-53
2023/03/14 05:51:34;;;;;;;0.60;0.20;;;;;;;24.40;36.77;98110.61;1785048;77;28347;-53
2023/03/14 05:54:24;;;;;;;0.15;0.15;;;;;;;24.42;36.82;98112.52;1835820;77;28275;-52
2023/03/14 05:57:21;;;;;;;0.20;0.20;;;;;;;24.39;36.75;98118.56;1815773;77;28338;-51
2023/03/14 06:00:27;;;;;;;0.10;0.10;;;;;;;24.40;36.83;98121.59;1838237;77;28234;-51
2023/03/14 06:03:17;;;;;;;0.20;0.20;;;;;;;24.40;36.84;98116.09;1826563;77;28276;-52
2023/03/14 06:06:07;;;;;;;0.10;0.10;;;;;;;24.37;36.79;98113.08;1830532;77;28402;-51
2023/03/14 06:08:56;;;;;;;0.10;0.10;;;;;;;24.39;36.89;98119.10;1836552;77;28308;-50
2023/03/14 06:11:45;;;;;;;0.47;0.20;;;;;;;24.41;36.82;98117.73;1835062;77;28372;-51
2023/03/14 06:14:34;;;;;;;0.10;0.10;;;;;;;24.43;36.77;98122.41;1835489;77;28247;-52
2023/03/14 06:17:23;;;;;;;0.20;0.20;;;;;;;24.45;36.70;98128.44;1840659;76;28175;-50
2023/03/14 06:20:14;;;;;;;0.20;0.20;;;;;;;24.46;36.74;98130.61;1832513;77;28293;-50
2023/03/14 06:23:03;;;;;;;0.08;0.08;;;;;;;24.44;36.75;98132.27;1814877;77;28840;-52
2023/03/14 06:25:53;;;;;;;0.10;0.10;;;;;;;24.40;36.44;98132.56;1833226;77;28329;-53
2023/03/14 06:28:43;;;;;;;0.25;0.15;;;;;;;24.42;36.58;98135.02;1841932;77;28286;-49
2023/03/14 06:31:33;;;;;;;0.20;0.20;;;;;;;24.44;36.51;98133.64;1841971;77;28345;-52
2023/03/14 06:34:22;;;;;;;0.10;0.10;;;;;;;24.44;36.45;98139.13;1841168;77;28306;-51
2023/03/14 06:37:11;;;;;;;0.17;0.17;;;;;;;24.45;36.39;98139.42;1834635;77;28260;-52
2023/03/14 06:39:59;;;;;;;0.20;0.20;;;;;;;24.44;35.97;98132.81;1841346;77;30164;-50
2023/03/14 06:42:49;;;;;;;0.35;0.20;;;;;;;24.39;35.11;98139.69;1833713;76;28300;-54
2023/03/14 06:45:38;;;;;;;0.30;0.30;;;;;;;24.29;35.54;98143.31;1831070;77;28393;-51
2023/03/14 06:48:27;;;;;;;0.42;0.20;;;;;;;24.14;36.07;98143.33;1829813;77;28296;-56
2023/03/14 06:51:15;;;;;;;0.15;0.15;;;;;;;24.02;36.44;98138.10;1840076;76;28355;-54
2023/03/14 06:54:04;;;;;;;0.10;0.10;;;;;;;23.96;36.70;98146.62;1800869;78;28417;-55
2023/03/14 06:56:53;;;;;;;0.42;0.20;;;;;;;23.93;36.84;98133.45;1841734;77;28314;-53
2023/03/14 06:59:42;;;;;;;0.10;0.10;;;;;;;23.90;36.99;98136.73;1840037;77;28298;-54
2023/03/14 07:02:31;;;;;;;0.45;0.30;;;;;;;23.88;37.20;98143.88;1835289;76;28274;-50
2023/03/14 07:05:21;;;;;;;0.10;0.10;;;;;;;23.88;37.35;98151.27;1842014;77;28166;-54
2023/03/14 07:08:10;;;;;;;0.40;0.10;;;;;;;23.87;37.43;98153.77;1836503;77;28307;-53
2023/03/14 07:10:58;;;;;;;0.00;0.00;;;;;;;23.85;37.48;98160.07;1841102;77;28295;-54
2023/03/14 07:13:47;;;;;;;0.20;0.15;;;;;;;23.83;37.56;98161.70;1829790;76;28320;-53
2023/03/14 07:16:36;;;;;;;0.30;0.30;;;;;;;23.81;37.70;98166.64;1828871;77;28264;-53
2023/03/14 07:19:24;;;;;;;0.20;0.20;;;;;;;23.80;37.93;98167.75;1839072;76;28287;-52
2023/03/14 07:22:13;;;;;;;0.40;0.30;;;;;;;23.80;38.13;98169.66;1840283;77;37464;-53
2023/03/14 07:25:01;;;;;;;0.20;0.20;;;;;;;23.82;38.33;98172.41;1809943;78;28380;-52
2023/03/14 07:27:51;;;;;;;0.30;0.30;;;;;;;23.82;38.51;98182.01;1841423;77;28266;-53
2023/03/14 07:30:39;;;;;;;0.10;0.10;;;;;;;23.83;38.61;98187.75;1831307;77;28360;-54
2023/03/14 07:33:29;;;;;;;0.30;0.20;;;;;;;23.84;38.74;98189.95;1839099;77;28330;-56
2023/03/14 07:36:18;;;;;;;0.20;0.20;;;;;;;23.85;38.88;98199.84;1830881;77;28311;-57
2023/03/14 07:39:08;;;;;;;0.50;0.30;;;;;;;23.85;39.01;98195.15;1836084;77;28494;-53
2023/03/14 07:42:07;;;;;;;2.50;0.40;;;;;;;23.86;39.13;98196.81;1832456;77;28285;-57
2023/03/14 07:45:11;;;;;;;0.40;0.30;;;;;;;23.85;39.27;98197.89;1825391;77;28310;-58
2023/03/14 07:47:59;;;;;;;1.55;0.37;;;;;;;23.84;39.41;98215.46;1828609;77;28397;-57
2023/03/14 07:50:51;;;;;;;0.10;0.10;;;;;;;23.99;39.30;98217.39;1838138;77;28362;-58
2023/03/14 07:53:40;;;;;;;0.20;0.13;;;;;;;24.14;39.02;98223.44;1789606;78;28336;-57
2023/03/14 07:56:28;;;;;;;0.70;0.20;;;;;;;24.23;38.72;98228.64;1815110;78;28214;-58
2023/03/14 07:59:16;;;;;;;0.13;0.13;;;;;;;24.28;38.47;98238.24;1802861;78;28256;-59
2023/03/14 08:02:09;;;;;;;2.65;0.30;;;;;;;24.31;38.38;98235.79;1817002;78;28458;-57
2023/03/14 08:04:54;;;;;;;0.20;0.20;;;;;;;24.32;38.24;98234.67;1816619;78;28340;-58
2023/03/14 08:07:43;;;;;;;0.50;0.30;;;;;;;24.35;38.23;98244.27;1807345;78;28316;-58
2023/03/14 08:10:32;;;;;;;1.80;0.20;;;;;;;24.37;38.25;98244.81;1810363;78;28196;-58
2023/03/14 08:13:21;;;;;;;0.25;0.25;;;;;;;24.34;38.29;98248.14;1858322;75;28020;-58
2023/03/14 08:16:11;;;;;;;0.20;0.20;;;;;;;24.34;38.31;98260.48;1811859;78;31166;-58
2023/03/14 08:18:59;;;;;;;0.30;0.30;;;;;;;24.36;38.27;98265.98;1821734;78;28351;-57
2023/03/14 08:21:47;;;;;;;0.20;0.20;;;;;;;24.36;38.17;98273.38;1800988;77;28259;-56
2023/03/14 08:24:36;;;;;;;0.40;0.40;;;;;;;24.37;38.14;98272.27;1809999;78;28232;-57
2023/03/14 08:27:24;;;;;;;0.45;0.37;;;;;;;24.36;38.08;98276.13;1839856;77;27714;-58
2023/03/14 08:30:15;;;;;;;2.90;1.45;;;;;;;24.36;38.12;98282.45;1833152;77;27894;-58
2023/03/14 08:33:03;;;;;;;4.70;2.10;;;;;;;24.35;38.16;98287.64;1852750;77;27748;-57
2023/03/14 08:35:53;;;;;;;3.27;1.55;;;;;;;24.35;38.14;98291.77;1854319;77;28330;-58
2023/03/14 08:38:42;;;;;;;3.60;1.52;;;;;;;24.35;38.15;98293.67;1856684;77;27803;-60
2023/03/14 08:41:31;;;;;;;1.75;1.65;;;;;;;24.35;38.16;98308.23;1835242;77;28224;-58
2023/03/14 08:44:19;;;;;;;2.17;1.32;;;;;;;24.36;38.21;98317.30;1844145;77;27875;-58
2023/03/14 08:47:08;;;;;;;1.50;1.10;;;;;;;24.36;38.21;98315.38;1840292;77;28182;-58
2023/03/14 08:49:56;;;;;;;0.75;0.75;;;;;;;24.36;38.24;98315.92;1853486;77;28937;-59
2023/03/14 08:52:45;;;;;;;1.35;0.90;;;;;;;24.34;38.23;98319.50;1851696;77;27746;-58
2023/03/14 08:55:33;;;;;;;2.20;0.80;;;;;;;24.36;38.23;98327.73;1835253;77;28330;-58
2023/03/14 08:58:23;;;;;;;1.02;0.80;;;;;;;24.35;38.21;98329.36;1846048;77;28511;-58
2023/03/14 09:01:12;;;;;;;0.60;0.60;;;;;;;24.33;38.24;98337.05;1831770;77;28271;-58
2023/03/14 09:04:00;;;;;;;1.20;0.60;;;;;;;24.34;38.29;98344.20;1840467;77;27710;-58
2023/03/14 09:06:49;;;;;;;1.22;0.80;;;;;;;24.33;38.25;98349.40;1833440;77;28300;-58
2023/03/14 09:09:38;;;;;;;1.52;0.80;;;;;;;24.33;38.23;98356.26;1841590;77;28505;-58
2023/03/14 09:12:26;;;;;;;0.60;0.60;;;;;;;24.31;38.30;98363.41;1845357;77;27746;-58
2023/03/14 09:15:15;;;;;;;0.90;0.90;;;;;;;24.30;38.29;98364.48;1856650;77;27732;-59
2023/03/14 09:18:03;;;;;;;3.40;0.80;;;;;;;24.31;38.24;98368.06;1854506;77;27808;-58
2023/03/14 09:20:51;;;;;;;1.30;0.70;;;;;;;24.30;38.22;98374.09;1810686;78;28153;-58
2023/03/14 09:23:40;;;;;;;0.98;0.72;;;;;;;24.26;38.27;98379.86;1790371;79;28405;-57
2023/03/14 09:26:29;;;;;;;1.27;0.60;;;;;;;24.27;38.23;98392.47;1790560;79;28222;-58
2023/03/14 09:29:18;;;;;;;1.20;0.98;;;;;;;24.27;38.27;98403.45;1788168;79;28419;-58
2023/03/14 09:32:06;;;;;;;0.60;0.60;;;;;;;24.27;38.24;98423.23;1821056;78;30192;-57
2023/03/14 09:34:54;;;;;;;0.68;0.68;;;;;;;24.28;38.19;98437.20;1821977;78;28346;-58
2023/03/14 09:37:42;;;;;;;0.78;0.78;;;;;;;24.26;38.29;98447.09;1799593;78;28209;-59
2023/03/14 09:40:39;;;;;;;0.50;0.50;;;;;;;24.25;38.22;98453.66;1819397;78;28286;-59
2023/03/14 09:43:30;;;;;;;0.80;0.80;;;;;;;24.26;38.25;98462.19;1801157;78;28284;-58
2023/03/14 09:46:19;;;;;;;0.53;0.50;;;;;;;24.25;38.28;98469.33;1808316;78;28148;-57
2023/03/14 09:49:22;;;;;;;0.77;0.77;;;;;;;24.23;38.36;98472.33;1788962;78;28329;-58
2023/03/14 09:52:19;;;;;;;1.00;0.72;;;;;;;24.23;38.38;98480.56;1813506;78;28289;-57
2023/03/14 09:55:13;;;;;;;2.50;0.80;;;;;;;24.21;38.32;98481.92;1828177;77;28169;-57
2023/03/14 09:58:04;;;;;;;0.70;0.70;;;;;;;24.18;38.39;98495.62;1829579;77;28270;-59
2023/03/14 10:00:55;;;;;;;1.22;1.07;;;;;;;24.19;38.40;98501.41;1824997;77;28234;-57
2023/03/14 10:03:46;;;;;;;1.45;0.70;;;;;;;24.20;38.31;98511.27;1820109;77;28840;-58
2023/03/14 10:06:34;;;;;;;0.62;0.62;;;;;;;24.19;38.36;98521.98;1834437;77;28376;-59
2023/03/14 10:09:28;;;;;;;1.92;0.85;;;;;;;24.19;38.31;98526.10;1829666;77;28276;-59
2023/03/14 10:12:18;;;;;;;1.50;0.80;;;;;;;24.19;38.32;98532.13;1814887;77;28246;-58
2023/03/14 10:15:14;;;;;;;2.90;1.00;;;;;;;24.19;38.31;98534.88;1815571;77;28392;-59
2023/03/14 10:18:09;;;;;;;2.47;0.60;;;;;;;24.19;38.41;98537.08;1837893;77;28170;-58
2023/03/14 10:21:10;;;;;;;1.60;0.70;;;;;;;24.16;38.45;98542.27;1832639;77;28166;-58
2023/03/14 10:24:21;;;;;;;2.02;0.60;;;;;;;24.17;38.40;98550.25;1828187;77;28318;-60
2023/03/14 10:27:24;;;;;;;0.90;0.62;;;;;;;24.16;38.43;98545.84;1839541;77;28159;-59
2023/03/14 10:30:15;;;;;;;0.88;0.80;;;;;;;24.14;38.46;98559.00;1838517;77;28136;-59
2023/03/14 10:33:13;;;;;;;0.80;0.70;;;;;;;24.11;38.57;98563.64;1815830;77;28627;-59
2023/03/14 10:36:20;;;;;;;0.50;0.50;;;;;;;24.11;38.56;98583.42;1839351;77;28314;-57
2023/03/14 10:39:20;;;;;;;0.60;0.60;;;;;;;24.13;38.60;98593.58;1829449;77;28341;-59
2023/03/14 10:42:31;;;;;;;3.10;0.90;;;;;;;24.09;38.62;98593.27;1832881;77;28313;-59
2023/03/14 10:45:32;;;;;;;1.17;0.98;;;;;;;24.07;38.61;98602.31;1835650;77;28168;-58
2023/03/14 10:48:26;;;;;;;2.83;1.00;;;;;;;24.12;38.60;98604.27;1834982;77;28760;-57
2023/03/14 10:51:29;;;;;;;2.08;0.65;;;;;;;24.09;38.67;98604.25;1831008;77;28195;-58
2023/03/14 10:54:24;;;;;;;0.82;0.70;;;;;;;24.07;38.64;98624.80;1819910;77;28350;-59
2023/03/14 10:57:12;;;;;;;0.82;0.82;;;;;;;24.07;38.63;98618.78;1824135;77;28268;-58
2023/03/14 11:00:07;;;;;;;1.42;0.70;;;;;;;24.08;38.59;98620.98;1831159;77;28289;-56
2023/03/14 11:03:05;;;;;;;1.37;0.80;;;;;;;24.08;38.52;98627.30;1832014;77;28213;-58
2023/03/14 11:06:00;;;;;;;1.45;0.82;;;;;;;24.11;38.50;98624.58;1829966;77;28157;-58
2023/03/14 11:09:04;;;;;;;0.70;0.70;;;;;;;24.09;38.54;98628.94;1826360;77;28271;-58
2023/03/14 11:11:50;;;;;;;0.82;0.72;;;;;;;24.11;38.56;98627.33;1820321;77;28265;-58
2023/03/14 11:14:41;;;;;;;1.00;0.90;;;;;;;24.10;38.61;98631.98;1839119;77;28294;-59
2023/03/14 11:17:42;;;;;;;0.80;0.80;;;;;;;24.12;38.61;98638.56;1836834;77;28711;-58
2023/03/14 11:21:09;;;;;;;0.80;0.80;;;;;;;24.12;38.57;98639.93;1838414;77;28174;-56
2023/03/14 11:24:15;;;;;;;2.12;0.80;;;;;;;24.11;38.50;98654.77;1833096;77;28185;-58
2023/03/14 11:27:21;;;;;;;1.00;0.90;;;;;;;24.08;38.53;98638.82;1818992;77;28329;-59
2023/03/14 11:30:29;;;;;;;1.57;0.90;;;;;;;24.05;38.53;98648.38;1807105;77;28137;-59
2023/03/14 11:33:20;;;;;;;2.43;0.73;;;;;;;24.08;38.57;98645.14;1826162;77;28244;-59
2023/03/14 11:36:12;;;;;;;0.93;0.75;;;;;;;24.08;38.51;98656.11;1789050;77;28181;-57
2023/03/14 11:39:00;;;;;;;0.70;0.70;;;;;;;24.06;38.51;98656.93;1818717;77;28145;-58
2023/03/14 11:41:52;;;;;;;0.60;0.60;;;;;;;24.04;38.47;98649.45;1837470;77;28256;-58
2023/03/14 11:44:41;;;;;;;0.65;0.65;;;;;;;24.08;38.39;98656.11;1803191;79;28345;-59
2023/03/14 11:47:35;;;;;;;0.62;0.62;;;;;;;24.07;38.27;98654.45;1821383;77;28237;-59
2023/03/14 11:50:30;;;;;;;0.90;0.90;;;;;;;24.10;38.23;98655.84;1810131;77;28217;-58
2023/03/14 11:53:33;;;;;;;0.67;0.67;;;;;;;24.10;38.13;98645.70;1828654;77;28169;-59
2023/03/14 11:56:33;;;;;;;1.20;0.87;;;;;;;24.12;38.05;98642.14;1815331;77;28340;-57
2023/03/14 11:59:49;;;;;;;1.82;0.70;;;;;;;24.14;38.00;98648.72;1837393;76;28116;-58
2023/03/14 12:02:55;;;;;;;0.70;0.68;;;;;;;24.12;37.91;98642.67;1844821;76;28134;-59
2023/03/14 12:05:55;;;;;;;0.80;0.80;;;;;;;24.13;37.87;98641.06;1854069;77;28218;-57
2023/03/14 12:09:03;;;;;;;0.75;0.68;;;;;;;24.13;37.88;98649.83;1839624;76;28115;-58
2023/03/14 12:11:57;;;;;;;1.17;0.55;;;;;;;24.11;37.83;98654.77;1855982;76;28219;-58
2023/03/14 12:14:49;;;;;;;0.60;0.50;;;;;;;24.10;37.89;98662.16;1854004;76;28316;-59
2023/03/14 12:17:48;;;;;;;0.70;0.70;;;;;;;24.12;37.72;98657.23;1856661;76;28125;-58
2023/03/14 12:20:36;;;;;;;0.70;0.70;;;;;;;24.11;37.80;98652.02;1860171;76;28235;-59
2023/03/14 12:23:25;;;;;;;0.62;0.62;;;;;;;24.14;37.77;98655.58;1858808;76;28190;-58
2023/03/14 12:26:17;;;;;;;0.90;0.90;;;;;;;24.15;37.73;98680.03;1855023;76;28066;-58
2023/03/14 12:29:08;;;;;;;0.70;0.70;;;;;;;24.16;37.72;98667.95;1852967;76;28168;-58
2023/03/14 12:32:09;;;;;;;1.03;0.83;;;;;;;24.18;37.66;98681.42;1854905;76;28150;-58
2023/03/14 12:34:59;;;;;;;0.90;0.78;;;;;;;24.18;37.70;98682.80;1853966;77;28247;-59
2023/03/14 12:37:50;;;;;;;0.70;0.70;;;;;;;24.15;37.64;98674.55;1850411;77;28169;-60
2023/03/14 12:40:58;;;;;;;1.10;0.93;;;;;;;24.15;37.67;98661.36;1855160;76;28007;-59
2023/03/14 12:43:48;;;;;;;0.88;0.80;;;;;;;24.17;37.61;98657.80;1856767;76;28118;-57
2023/03/14 12:46:37;;;;;;;0.82;0.53;;;;;;;24.13;37.59;98664.38;1843143;76;28569;-58
2023/03/14 12:49:39;;;;;;;0.70;0.70;;;;;;;24.16;37.61;98667.12;1846668;76;28051;-59
2023/03/14 12:52:33;;;;;;;0.70;0.70;;;;;;;24.18;37.55;98656.16;1855706;76;28170;-57
2023/03/14 12:55:42;;;;;;;0.70;0.70;;;;;;;24.17;37.51;98652.31;1860471;76;28142;-58
2023/03/14 12:58:41;;;;;;;0.78;0.68;;;;;;;24.16;37.55;98655.60;1853336;76;28082;-59
2023/03/14 13:01:29;;;;;;;0.80;0.80;;;;;;;24.13;37.57;98641.60;1849703;77;28552;-58
2023/03/14 13:04:18;;;;;;;0.75;0.75;;;;;;;24.13;37.57;98656.69;1848774;77;28038;-60
2023/03/14 13:07:15;;;;;;;0.57;0.57;;;;;;;24.12;37.66;98661.34;1849571;77;28138;-58
2023/03/14 13:10:06;;;;;;;0.70;0.70;;;;;;;24.11;37.63;98651.45;1825793;78;28087;-59
2023/03/14 13:13:19;;;;;;;0.75;0.75;;;;;;;24.13;37.65;98631.45;1853663;77;27772;-58
2023/03/14 13:16:11;;;;;;;0.97;0.70;;;;;;;24.11;37.61;98627.33;1866768;76;28268;-59
2023/03/14 13:19:06;;;;;;;0.60;0.60;;;;;;;24.08;37.68;98627.84;1857293;76;36784;-58
2023/03/14 13:22:03;;;;;;;1.62;1.00;;;;;;;24.10;37.69;98633.34;1842009;77;27759;-59
2023/03/14 13:24:51;;;;;;;0.57;0.57;;;;;;;24.11;37.72;98633.61;1835963;77;28269;-58
2023/03/14 13:27:41;;;;;;;0.70;0.70;;;;;;;24.09;37.69;98641.28;1850441;77;28267;-60
2023/03/14 13:30:38;;;;;;;0.55;0.55;;;;;;;24.11;37.68;98643.22;1855448;77;28173;-58
2023/03/14 13:33:27;;;;;;;0.75;0.75;;;;;;;24.12;37.61;98645.42;1833802;77;28268;-58